createdAt,value
2023-02-08T00:01:25.182Z,-0.88
2023-02-08T00:03:58.902Z,-0.89
2023-02-08T00:06:28.504Z,-0.95
2023-02-08T00:08:56.453Z,-0.96
2023-02-08T00:11:24.463Z,-0.96
2023-02-08T00:13:52.618Z,-0.97
2023-02-08T00:16:20.669Z,-1.02
2023-02-08T00:18:51.153Z,-1.10
2023-02-08T00:21:20.857Z,-1.12
2023-02-08T00:23:52.906Z,-1.14
2023-02-08T00:26:20.916Z,-1.20
2023-02-08T00:28:48.937Z,-1.24
2023-02-08T00:31:19.252Z,-1.25
2023-02-08T00:33:48.370Z,-1.30
2023-02-08T00:36:16.840Z,-1.36
2023-02-08T00:38:47.196Z,-1.41
2023-02-08T00:41:17.018Z,-1.41
2023-02-08T00:43:49.369Z,-1.41
2023-02-08T00:46:17.962Z,-1.44
2023-02-08T00:48:45.848Z,-1.45
2023-02-08T00:51:15.295Z,-1.49
2023-02-08T00:53:45.294Z,-1.53
2023-02-08T00:56:18.030Z,-1.55
2023-02-08T00:58:46.713Z,-1.56
2023-02-08T01:01:15.532Z,-1.57
2023-02-08T01:03:44.706Z,-1.59
2023-02-08T01:06:16.166Z,-1.64
2023-02-08T01:08:46.366Z,-1.60
2023-02-08T01:11:18.656Z,-1.58
2023-02-08T01:13:46.922Z,-1.57
2023-02-08T01:16:16.844Z,-1.60
2023-02-08T01:18:49.917Z,-1.63
2023-02-08T01:21:20.765Z,-1.60
2023-02-08T01:23:49.304Z,-1.62
2023-02-08T01:26:20.150Z,-1.65
2023-02-08T01:28:49.591Z,-1.73
2023-02-08T01:31:22.097Z,-1.81
2023-02-08T01:33:50.675Z,-1.77
2023-02-08T01:36:21.076Z,-1.82
2023-02-08T01:38:49.487Z,-1.77
2023-02-08T01:41:23.896Z,-1.80
2023-02-08T01:44:17.581Z,-1.80
2023-02-08T01:46:51.207Z,-1.82
2023-02-08T01:49:25.533Z,-1.87
2023-02-08T01:51:58.508Z,-1.89
2023-02-08T01:54:37.377Z,-1.90
2023-02-08T01:57:09.709Z,-1.89
2023-02-08T01:59:41.803Z,-1.92
2023-02-08T02:02:14.189Z,-1.91
2023-02-08T02:04:42.711Z,-1.92
2023-02-08T02:07:13.302Z,-1.98
2023-02-08T02:09:45.670Z,-1.94
2023-02-08T02:12:15.994Z,-1.91
2023-02-08T02:14:45.727Z,-1.92
2023-02-08T02:17:15.215Z,-2.00
2023-02-08T02:19:55.720Z,-2.01
2023-02-08T02:22:51.551Z,-2.03
2023-02-08T02:25:36.901Z,-2.10
2023-02-08T02:28:29.587Z,-2.16
2023-02-08T02:31:43.694Z,-2.20
2023-02-08T02:34:18.935Z,-2.19
2023-02-08T02:36:54.993Z,-2.18
2023-02-08T02:39:31.120Z,-2.20
2023-02-08T02:42:24.730Z,-2.25
2023-02-08T02:44:59.396Z,-2.28
2023-02-08T02:47:36.223Z,-2.29
2023-02-08T02:50:11.649Z,-2.29
2023-02-08T02:52:45.918Z,-2.27
2023-02-08T02:55:18.474Z,-2.34
2023-02-08T02:57:52.914Z,-2.33
2023-02-08T03:00:24.418Z,-2.30
2023-02-08T03:02:55.629Z,-2.27
2023-02-08T03:05:24.150Z,-2.34
2023-02-08T03:08:10.763Z,-2.36
2023-02-08T03:10:55.072Z,-2.38
2023-02-08T03:13:33.788Z,-2.40
2023-02-08T03:16:14.777Z,-2.42
2023-02-08T03:18:56.314Z,-2.41
2023-02-08T03:21:34.867Z,-2.37
2023-02-08T03:24:10.802Z,-2.35
2023-02-08T03:26:49.318Z,-2.40
2023-02-08T03:29:26.505Z,-2.39
2023-02-08T03:32:00.478Z,-2.42
2023-02-08T03:34:37.378Z,-2.43
2023-02-08T03:37:13.181Z,-2.42
2023-02-08T03:39:43.171Z,-2.41
2023-02-08T03:42:18.253Z,-2.42
2023-02-08T03:44:52.931Z,-2.40
2023-02-08T03:47:24.642Z,-2.45
2023-02-08T03:49:56.959Z,-2.46
2023-02-08T03:52:26.804Z,-2.48
2023-02-08T03:54:59.281Z,-2.51
2023-02-08T03:57:30.969Z,-2.52
2023-02-08T04:00:03.546Z,-2.58
2023-02-08T04:02:44.849Z,-2.61
2023-02-08T04:05:14.942Z,-2.60
2023-02-08T04:07:43.236Z,-2.64
2023-02-08T04:10:11.628Z,-2.69
2023-02-08T04:12:40.131Z,-2.75
2023-02-08T04:15:09.153Z,-2.77
2023-02-08T04:17:37.239Z,-2.80
2023-02-08T04:20:06.018Z,-2.77
2023-02-08T04:22:35.554Z,-2.75
2023-02-08T04:25:06.958Z,-2.77
2023-02-08T04:27:34.821Z,-2.82
2023-02-08T04:30:03.172Z,-2.83
2023-02-08T04:32:31.575Z,-2.86
2023-02-08T04:35:00.247Z,-2.88
2023-02-08T04:37:28.443Z,-2.93
2023-02-08T04:39:57.855Z,-2.92
2023-02-08T04:42:26.422Z,-2.92
2023-02-08T04:44:54.495Z,-2.88
2023-02-08T04:47:22.725Z,-2.88
2023-02-08T04:49:51.009Z,-2.85
2023-02-08T04:52:19.085Z,-2.82
2023-02-08T04:54:46.947Z,-2.81
2023-02-08T04:57:16.523Z,-2.80
2023-02-08T04:59:44.908Z,-2.80
2023-02-08T05:02:13.290Z,-2.77
2023-02-08T05:04:41.644Z,-2.78
2023-02-08T05:07:10.433Z,-2.78
2023-02-08T05:09:38.787Z,-2.78
2023-02-08T05:12:07.555Z,-2.75
2023-02-08T05:14:37.182Z,-2.76
2023-02-08T05:17:05.327Z,-2.73
2023-02-08T05:19:33.502Z,-2.70
2023-02-08T05:22:01.856Z,-2.67
2023-02-08T05:24:31.302Z,-2.66
2023-02-08T05:26:59.554Z,-2.70
2023-02-08T05:29:27.656Z,-2.73
2023-02-08T05:31:57.172Z,-2.77
2023-02-08T05:34:25.177Z,-2.79
2023-02-08T05:36:53.058Z,-2.91
2023-02-08T05:39:21.074Z,-2.95
2023-02-08T05:41:49.168Z,-2.96
2023-02-08T05:44:17.285Z,-3.00
2023-02-08T05:46:45.665Z,-2.96
2023-02-08T05:49:15.350Z,-3.03
2023-02-08T05:51:43.816Z,-3.10
2023-02-08T05:54:12.018Z,-3.11
2023-02-08T05:56:40.197Z,-3.14
2023-02-08T05:59:08.356Z,-3.13
2023-02-08T06:01:36.749Z,-3.16
2023-02-08T06:04:05.432Z,-3.19
2023-02-08T06:06:39.250Z,-3.19
2023-02-08T06:09:07.307Z,-3.21
2023-02-08T06:11:36.094Z,-3.19
2023-02-08T06:14:04.450Z,-3.21
2023-02-08T06:16:33.348Z,-3.21
2023-02-08T06:19:02.240Z,-3.21
2023-02-08T06:21:30.744Z,-3.22
2023-02-08T06:24:00.136Z,-3.15
2023-02-08T06:26:28.686Z,-3.20
2023-02-08T06:28:58.455Z,-3.18
2023-02-08T06:31:54.136Z,-3.11
2023-02-08T06:34:22.485Z,-3.06
2023-02-08T06:36:52.129Z,-3.05
2023-02-08T06:39:22.826Z,-3.04
2023-02-08T06:41:51.413Z,-3.10
2023-02-08T06:44:24.883Z,-3.11
2023-02-08T06:46:54.238Z,-3.11
2023-02-08T06:49:24.073Z,-3.10
2023-02-08T06:51:55.711Z,-3.10
2023-02-08T06:54:27.532Z,-3.08
2023-02-08T06:56:55.662Z,-3.08
2023-02-08T06:59:24.053Z,-3.10
2023-02-08T07:01:52.288Z,-3.16
2023-02-08T07:04:23.353Z,-3.13
2023-02-08T07:06:52.476Z,-3.15
2023-02-08T07:09:23.060Z,-3.13
2023-02-08T07:11:52.637Z,-3.13
2023-02-08T07:14:22.018Z,-3.10
2023-02-08T07:16:56.519Z,-3.07
2023-02-08T07:19:24.995Z,-3.05
2023-02-08T07:21:53.878Z,-3.04
2023-02-08T07:24:24.637Z,-2.95
2023-02-08T07:26:54.199Z,-2.95
2023-02-08T07:29:22.194Z,-2.86
2023-02-08T07:31:50.479Z,-2.82
2023-02-08T07:34:22.060Z,-2.82
2023-02-08T07:36:51.724Z,-2.79
2023-02-08T07:39:19.934Z,-2.76
2023-02-08T07:41:48.936Z,-2.71
2023-02-08T07:44:18.568Z,-2.65
2023-02-08T07:46:46.571Z,-2.58
2023-02-08T07:49:14.996Z,-2.52
2023-02-08T07:51:43.448Z,-2.45
2023-02-08T07:54:11.366Z,-2.44
2023-02-08T07:56:42.729Z,-2.39
2023-02-08T07:59:10.867Z,-2.25
2023-02-08T08:01:40.448Z,-2.10
2023-02-08T08:04:11.252Z,-2.07
2023-02-08T08:06:39.336Z,-2.05
2023-02-08T08:09:09.602Z,-1.99
2023-02-08T08:11:37.886Z,-1.94
2023-02-08T08:14:05.868Z,-1.86
2023-02-08T08:16:34.242Z,-1.79
2023-02-08T08:19:03.787Z,-1.70
2023-02-08T08:21:32.611Z,-1.61
2023-02-08T08:24:00.489Z,-1.49
2023-02-08T08:26:30.213Z,-1.37
2023-02-08T08:29:00.485Z,-1.23
2023-02-08T08:31:30.616Z,-1.12
2023-02-08T08:33:59.165Z,-1.00
2023-02-08T08:36:31.531Z,-0.88
2023-02-08T08:38:59.764Z,-0.77
2023-02-08T08:41:28.499Z,-0.60
2023-02-08T08:43:56.544Z,-0.46
2023-02-08T08:46:24.763Z,-0.34
2023-02-08T08:48:53.486Z,-0.21
2023-02-08T08:51:22.264Z,-0.09
2023-02-08T08:53:52.042Z,0.04
2023-02-08T08:56:20.387Z,0.15
2023-02-08T08:58:48.398Z,0.26
2023-02-08T09:01:16.736Z,0.38
2023-02-08T09:03:44.983Z,0.48
2023-02-08T09:06:13.188Z,0.62
2023-02-08T09:08:41.358Z,0.74
2023-02-08T09:11:13.655Z,0.86
2023-02-08T09:13:42.617Z,0.97
2023-02-08T09:16:14.252Z,1.07
2023-02-08T09:18:43.295Z,1.15
2023-02-08T09:21:13.461Z,1.26
2023-02-08T09:23:41.723Z,1.37
2023-02-08T09:26:13.660Z,1.48
2023-02-08T09:28:42.098Z,1.61
2023-02-08T09:31:13.598Z,1.71
2023-02-08T09:33:43.967Z,1.81
2023-02-08T09:36:13.211Z,1.93
2023-02-08T09:38:42.209Z,2.02
2023-02-08T09:41:30.667Z,2.13
2023-02-08T09:44:14.235Z,2.21
2023-02-08T09:46:47.131Z,2.38
2023-02-08T09:49:20.190Z,2.58
2023-02-08T09:51:55.474Z,2.61
2023-02-08T09:54:30.086Z,2.71
2023-02-08T09:57:02.657Z,2.80
2023-02-08T09:59:34.601Z,2.88
2023-02-08T10:02:12.090Z,3.01
2023-02-08T10:04:50.701Z,3.04
2023-02-08T10:07:18.852Z,3.21
2023-02-08T10:09:47.998Z,3.32
2023-02-08T10:12:25.394Z,3.48
2023-02-08T10:15:06.041Z,3.59
2023-02-08T10:17:48.070Z,3.67
2023-02-08T10:20:29.768Z,3.71
2023-02-08T10:23:08.312Z,3.75
2023-02-08T10:25:51.821Z,3.94
2023-02-08T10:28:35.792Z,4.01
2023-02-08T10:31:18.810Z,4.14
2023-02-08T10:33:56.385Z,4.19
2023-02-08T10:36:33.213Z,4.33
2023-02-08T10:39:03.860Z,4.42
2023-02-08T10:41:35.905Z,4.54
2023-02-08T10:44:09.545Z,4.66
2023-02-08T10:46:47.164Z,4.72
2023-02-08T10:49:22.425Z,4.77
2023-02-08T10:51:50.962Z,4.85
2023-02-08T10:54:18.970Z,4.98
2023-02-08T10:56:49.575Z,5.04
2023-02-08T10:59:23.694Z,4.95
2023-02-08T11:01:51.973Z,4.99
2023-02-08T11:04:20.858Z,5.01
2023-02-08T11:06:51.797Z,5.09
2023-02-08T11:09:26.672Z,5.28
2023-02-08T11:11:55.853Z,5.31
2023-02-08T11:14:45.414Z,5.40
2023-02-08T11:17:28.197Z,5.51
2023-02-08T11:19:56.745Z,5.58
2023-02-08T11:22:27.808Z,5.67
2023-02-08T11:24:58.186Z,5.77
2023-02-08T11:27:34.962Z,5.90
2023-02-08T11:30:21.311Z,6.01
2023-02-08T11:32:51.147Z,6.11
2023-02-08T11:35:22.862Z,6.23
2023-02-08T11:37:52.749Z,6.27
2023-02-08T11:40:24.789Z,6.39
2023-02-08T11:42:53.807Z,6.44
2023-02-08T11:45:26.864Z,6.50
2023-02-08T11:47:55.463Z,6.50
2023-02-08T11:50:27.319Z,6.65
2023-02-08T11:52:59.783Z,6.71
2023-02-08T11:55:30.806Z,6.86
2023-02-08T11:58:02.435Z,6.92
2023-02-08T12:00:35.182Z,7.08
2023-02-08T12:03:06.719Z,7.21
2023-02-08T12:05:45.265Z,7.25
2023-02-08T12:08:24.194Z,7.35
2023-02-08T12:11:03.915Z,7.48
2023-02-08T12:13:56.616Z,7.59
2023-02-08T12:16:39.614Z,7.64
2023-02-08T12:19:26.004Z,7.76
2023-02-08T12:22:00.380Z,7.89
2023-02-08T12:24:38.642Z,7.96
2023-02-08T12:27:18.962Z,7.95
2023-02-08T12:29:54.997Z,7.89
2023-02-08T12:32:42.379Z,8.14
2023-02-08T12:36:01.824Z,8.33
2023-02-08T12:39:19.670Z,8.27
2023-02-08T12:42:01.827Z,8.49
2023-02-08T12:44:39.890Z,8.66
2023-02-08T12:47:29.643Z,8.80
2023-02-08T12:50:09.167Z,8.94
2023-02-08T12:52:42.300Z,9.03
2023-02-08T12:55:19.469Z,9.24
2023-02-08T12:57:53.204Z,9.43
2023-02-08T13:00:26.983Z,9.29
2023-02-08T13:03:06.909Z,9.64
2023-02-08T13:05:53.476Z,9.97
2023-02-08T13:08:35.562Z,9.92
2023-02-08T13:11:19.526Z,10.17
2023-02-08T13:13:57.170Z,10.60
2023-02-08T13:16:29.440Z,10.89
2023-02-08T13:19:19.486Z,11.19
2023-02-08T13:21:50.929Z,11.84
2023-02-08T13:24:32.527Z,13.43
2023-02-08T13:27:03.438Z,14.37
2023-02-08T13:29:33.632Z,15.19
2023-02-08T13:32:05.303Z,14.90
2023-02-08T13:34:40.086Z,14.31
2023-02-08T13:37:25.122Z,13.50
2023-02-08T13:40:01.424Z,12.91
2023-02-08T13:42:32.188Z,12.69
2023-02-08T13:45:01.747Z,12.60
2023-02-08T13:47:33.032Z,12.61
2023-02-08T13:50:07.306Z,12.36
2023-02-08T13:52:51.953Z,12.97
2023-02-08T13:55:45.891Z,14.19
2023-02-08T13:59:04.988Z,15.47
2023-02-08T14:01:36.186Z,16.50
2023-02-08T14:04:36.249Z,17.12
2023-02-08T14:07:30.120Z,16.56
2023-02-08T14:10:30.406Z,15.95
2023-02-08T14:13:09.214Z,15.31
2023-02-08T14:15:40.875Z,14.37
2023-02-08T14:18:27.561Z,13.79
2023-02-08T14:21:03.986Z,13.40
2023-02-08T14:23:34.395Z,13.19
2023-02-08T14:26:10.125Z,12.90
2023-02-08T14:28:40.526Z,12.66
2023-02-08T14:31:13.405Z,12.56
2023-02-08T14:33:52.129Z,12.31
2023-02-08T14:36:28.796Z,12.21
2023-02-08T14:39:22.950Z,12.11
2023-02-08T14:42:00.012Z,11.88
2023-02-08T14:45:06.214Z,11.81
2023-02-08T14:48:12.420Z,11.64
2023-02-08T14:50:44.773Z,11.53
2023-02-08T14:53:22.574Z,11.54
2023-02-08T14:55:59.244Z,11.54
2023-02-08T14:58:32.416Z,11.49
2023-02-08T15:01:07.136Z,11.51
2023-02-08T15:03:37.004Z,11.24
2023-02-08T15:06:27.976Z,11.32
2023-02-08T15:08:56.737Z,10.92
2023-02-08T15:11:27.677Z,10.91
2023-02-08T15:14:01.038Z,10.84
2023-02-08T15:16:33.811Z,10.74
2023-02-08T15:19:08.409Z,10.76
2023-02-08T15:21:38.938Z,10.70
2023-02-08T15:24:16.778Z,10.68
2023-02-08T15:26:49.972Z,10.60
2023-02-08T15:29:32.764Z,10.50
2023-02-08T15:32:15.214Z,10.17
2023-02-08T15:34:45.518Z,9.83
2023-02-08T15:37:18.159Z,9.49
2023-02-08T15:39:50.038Z,9.23
2023-02-08T15:42:19.580Z,8.92
2023-02-08T15:44:50.231Z,8.56
2023-02-08T15:47:21.019Z,8.36
2023-02-08T15:49:53.842Z,8.25
2023-02-08T15:52:24.787Z,8.09
2023-02-08T15:54:53.465Z,7.95
2023-02-08T15:57:31.354Z,7.75
2023-02-08T16:00:01.447Z,7.57
2023-02-08T16:02:31.959Z,7.37
2023-02-08T16:05:01.794Z,7.23
2023-02-08T16:07:35.295Z,7.06
2023-02-08T16:10:08.636Z,6.95
2023-02-08T16:12:37.913Z,6.85
2023-02-08T16:15:28.272Z,6.68
2023-02-08T16:17:58.537Z,6.54
2023-02-08T16:20:33.700Z,6.34
2023-02-08T16:23:03.806Z,6.22
2023-02-08T16:25:44.495Z,6.11
2023-02-08T16:28:28.051Z,6.00
2023-02-08T16:30:59.798Z,5.88
2023-02-08T16:33:32.014Z,5.74
2023-02-08T16:36:03.048Z,5.61
2023-02-08T16:38:34.481Z,5.47
2023-02-08T16:41:13.056Z,5.35
2023-02-08T16:43:43.976Z,5.24
2023-02-08T16:46:24.470Z,5.13
2023-02-08T16:48:54.713Z,5.04
2023-02-08T16:51:25.705Z,4.93
2023-02-08T16:53:57.185Z,4.82
2023-02-08T16:56:28.079Z,4.71
2023-02-08T16:58:56.289Z,4.59
2023-02-08T17:01:29.579Z,4.49
2023-02-08T17:03:58.384Z,4.42
2023-02-08T17:06:31.321Z,4.33
2023-02-08T17:08:59.987Z,4.28
2023-02-08T17:11:30.124Z,4.19
2023-02-08T17:14:00.623Z,4.12
2023-02-08T17:16:31.828Z,4.02
2023-02-08T17:19:01.994Z,3.99
2023-02-08T17:21:31.326Z,3.92
2023-02-08T17:24:04.706Z,3.81
2023-02-08T17:26:37.706Z,3.75
2023-02-08T17:29:07.720Z,3.64
2023-02-08T17:31:37.090Z,3.57
2023-02-08T17:34:07.928Z,3.49
2023-02-08T17:36:38.043Z,3.36
2023-02-08T17:39:06.807Z,3.33
2023-02-08T17:41:35.441Z,3.24
2023-02-08T17:44:04.083Z,3.07
2023-02-08T17:46:34.698Z,2.98
2023-02-08T17:49:04.511Z,2.87
2023-02-08T17:51:32.986Z,2.83
2023-02-08T17:54:06.633Z,2.75
2023-02-08T17:56:36.352Z,2.65
2023-02-08T17:59:05.370Z,2.57
2023-02-08T18:01:36.427Z,2.50
2023-02-08T18:04:11.047Z,2.44
2023-02-08T18:06:39.358Z,2.40
2023-02-08T18:09:07.259Z,2.35
2023-02-08T18:11:35.362Z,2.33
2023-02-08T18:14:04.185Z,2.26
2023-02-08T18:16:33.023Z,2.17
2023-02-08T18:19:01.898Z,2.10
2023-02-08T18:21:33.353Z,2.05
2023-02-08T18:24:02.472Z,2.00
2023-02-08T18:26:33.573Z,1.99
2023-02-08T18:29:05.175Z,1.89
2023-02-08T18:31:34.604Z,1.84
2023-02-08T18:34:16.302Z,1.75
2023-02-08T18:36:49.430Z,1.69
2023-02-08T18:39:22.936Z,1.66
2023-02-08T18:41:52.018Z,1.60
2023-02-08T18:44:20.983Z,1.61
2023-02-08T18:46:49.678Z,1.61
2023-02-08T18:49:17.849Z,1.55
2023-02-08T18:51:48.258Z,1.51
2023-02-08T18:54:18.941Z,1.48
2023-02-08T18:56:47.286Z,1.46
2023-02-08T18:59:15.760Z,1.42
2023-02-08T19:01:44.897Z,1.38
2023-02-08T19:04:13.232Z,1.39
2023-02-08T19:06:41.247Z,1.34
2023-02-08T19:09:12.995Z,1.25
2023-02-08T19:11:41.710Z,1.20
2023-02-08T19:14:12.755Z,1.14
2023-02-08T19:16:42.925Z,1.17
2023-02-08T19:19:11.663Z,1.09
2023-02-08T19:21:40.167Z,1.04
2023-02-08T19:24:08.858Z,1.01
2023-02-08T19:26:40.973Z,0.97
2023-02-08T19:29:13.376Z,0.96
2023-02-08T19:31:42.515Z,0.92
2023-02-08T19:34:11.861Z,0.77
2023-02-08T19:36:44.732Z,0.77
2023-02-08T19:39:15.933Z,0.81
2023-02-08T19:41:46.526Z,0.73
2023-02-08T19:44:17.121Z,0.69
2023-02-08T19:46:48.726Z,0.67
2023-02-08T19:49:17.195Z,0.61
2023-02-08T19:51:45.209Z,0.59
2023-02-08T19:54:17.965Z,0.56
2023-02-08T19:56:50.468Z,0.54
2023-02-08T19:59:21.696Z,0.52
2023-02-08T20:01:52.092Z,0.53
2023-02-08T20:04:20.844Z,0.54
2023-02-08T20:06:52.213Z,0.53
2023-02-08T20:09:20.532Z,0.54
2023-02-08T20:11:57.233Z,0.48
2023-02-08T20:14:28.971Z,0.46
2023-02-08T20:16:57.576Z,0.51
2023-02-08T20:19:25.803Z,0.46
2023-02-08T20:21:54.002Z,0.46
2023-02-08T20:24:24.626Z,0.49
2023-02-08T20:26:54.278Z,0.49
2023-02-08T20:29:22.632Z,0.48
2023-02-08T20:31:55.598Z,0.47
2023-02-08T20:34:23.910Z,0.44
2023-02-08T20:37:06.998Z,0.42
2023-02-08T20:39:36.542Z,0.45
2023-02-08T20:42:06.707Z,0.46
2023-02-08T20:44:34.849Z,0.46
2023-02-08T20:47:05.613Z,0.44
2023-02-08T20:49:33.901Z,0.44
2023-02-08T20:52:02.066Z,0.49
2023-02-08T20:54:30.080Z,0.46
2023-02-08T20:56:58.889Z,0.43
2023-02-08T20:59:31.418Z,0.42
2023-02-08T21:01:59.762Z,0.42
2023-02-08T21:04:27.850Z,0.39
2023-02-08T21:06:56.027Z,0.38
2023-02-08T21:09:26.573Z,0.41
2023-02-08T21:12:01.906Z,0.43
2023-02-08T21:14:31.855Z,0.43
2023-02-08T21:17:00.333Z,0.42
2023-02-08T21:19:30.530Z,0.45
2023-02-08T21:22:01.364Z,0.44
2023-02-08T21:24:30.847Z,0.45
2023-02-08T21:27:02.011Z,0.45
2023-02-08T21:29:32.636Z,0.46
2023-02-08T21:32:01.730Z,0.45
2023-02-08T21:34:30.386Z,0.44
2023-02-08T21:36:58.624Z,0.47
2023-02-08T21:39:26.971Z,0.45
2023-02-08T21:41:56.219Z,0.47
2023-02-08T21:44:24.428Z,0.45
2023-02-08T21:46:53.793Z,0.48
2023-02-08T21:49:39.149Z,0.49
2023-02-08T21:52:24.672Z,0.49
2023-02-08T21:54:54.205Z,0.47
2023-02-08T21:57:25.882Z,0.44
2023-02-08T21:59:59.667Z,0.44
2023-02-08T22:02:32.975Z,0.41
2023-02-08T22:05:22.120Z,0.42
2023-02-08T22:07:52.168Z,0.39
2023-02-08T22:10:24.220Z,0.41
2023-02-08T22:12:55.050Z,0.39
2023-02-08T22:15:27.802Z,0.39
2023-02-08T22:17:59.835Z,0.37
2023-02-08T22:20:31.370Z,0.31
2023-02-08T22:23:04.453Z,0.28
2023-02-08T22:25:32.799Z,0.27
2023-02-08T22:28:01.261Z,0.27
2023-02-08T22:30:29.546Z,0.27
2023-02-08T22:32:59.242Z,0.21
2023-02-08T22:38:23.630Z,0.18
2023-02-08T22:40:54.060Z,0.19
2023-02-08T22:43:22.104Z,0.18
2023-02-08T22:45:59.764Z,0.19
2023-02-08T22:48:29.932Z,0.11
2023-02-08T22:51:00.283Z,0.04
2023-02-08T22:53:28.549Z,0.02
2023-02-08T22:55:57.348Z,-0.01
2023-02-08T22:58:25.804Z,-0.06
2023-02-08T23:00:53.755Z,-0.03
2023-02-08T23:03:22.022Z,-0.02
2023-02-08T23:05:56.200Z,-0.07
2023-02-08T23:08:25.238Z,-0.12
2023-02-08T23:11:00.184Z,-0.17
2023-02-08T23:13:34.531Z,-0.23
2023-02-08T23:16:04.756Z,-0.21
2023-02-08T23:18:33.076Z,-0.20
2023-02-08T23:21:08.926Z,-0.24
2023-02-08T23:23:39.409Z,-0.26
2023-02-08T23:26:08.618Z,-0.25
2023-02-08T23:28:37.223Z,-0.31
2023-02-08T23:31:07.581Z,-0.34
2023-02-08T23:33:36.492Z,-0.38
2023-02-08T23:36:09.167Z,-0.44
2023-02-08T23:38:37.596Z,-0.50
2023-02-08T23:41:06.114Z,-0.51
2023-02-08T23:43:37.791Z,-0.59
2023-02-08T23:46:10.207Z,-0.64
2023-02-08T23:48:39.502Z,-0.63
2023-02-08T23:51:10.317Z,-0.64
2023-02-08T23:53:39.405Z,-0.68
2023-02-08T23:56:12.549Z,-0.78
2023-02-08T23:58:41.241Z,-0.80
